sensor_id;sensor_type;location;lat;lon;timestamp;pressure;altitude;pressure_sealevel;temperature;humidity
25944;BME280;13742;49.306;8.636;2023-07-13T00:00:10;100403.47;;;22.58;46.74
25944;BME280;13742;49.306;8.636;2023-07-13T00:01:09;100404.98;;;22.58;46.52
25944;BME280;13742;49.306;8.636;2023-07-13T00:02:09;100406.00;;;22.58;46.56
25944;BME280;13742;49.306;8.636;2023-07-13T00:03:09;100409.19;;;22.60;46.73
25944;BME280;13742;49.306;8.636;2023-07-13T00:04:09;100412.69;;;22.62;46.73
25944;BME280;13742;49.306;8.636;2023-07-13T00:05:09;100415.10;;;22.64;46.74
25944;BME280;13742;49.306;8.636;2023-07-13T00:06:09;100415.87;;;22.67;46.86
25944;BME280;13742;49.306;8.636;2023-07-13T00:07:09;100416.14;;;22.68;46.74
25944;BME280;13742;49.306;8.636;2023-07-13T00:08:11;100418.49;;;22.68;46.76
25944;BME280;13742;49.306;8.636;2023-07-13T00:09:13;100421.12;;;22.68;46.73
25944;BME280;13742;49.306;8.636;2023-07-13T00:10:09;100421.29;;;22.68;46.68
25944;BME280;13742;49.306;8.636;2023-07-13T00:11:10;100427.62;;;22.68;46.65
25944;BME280;13742;49.306;8.636;2023-07-13T00:12:22;100428.69;;;22.68;46.72
25944;BME280;13742;49.306;8.636;2023-07-13T00:13:09;100426.03;;;22.69;46.71
25944;BME280;13742;49.306;8.636;2023-07-13T00:14:09;100422.50;;;22.69;46.75
25944;BME280;13742;49.306;8.636;2023-07-13T00:15:14;100425.39;;;22.68;46.78
25944;BME280;13742;49.306;8.636;2023-07-13T00:16:09;100423.48;;;22.68;46.89
25944;BME280;13742;49.306;8.636;2023-07-13T00:17:09;100427.86;;;22.68;47.17
25944;BME280;13742;49.306;8.636;2023-07-13T00:18:09;100424.05;;;22.68;47.35
25944;BME280;13742;49.306;8.636;2023-07-13T00:19:10;100422.03;;;22.68;47.47
25944;BME280;13742;49.306;8.636;2023-07-13T00:20:09;100425.50;;;22.68;47.28
25944;BME280;13742;49.306;8.636;2023-07-13T00:21:09;100422.47;;;22.66;47.33
25944;BME280;13742;49.306;8.636;2023-07-13T00:22:09;100421.63;;;22.66;47.48
25944;BME280;13742;49.306;8.636;2023-07-13T00:23:09;100424.80;;;22.65;47.46
25944;BME280;13742;49.306;8.636;2023-07-13T00:24:13;100419.08;;;22.62;47.59
25944;BME280;13742;49.306;8.636;2023-07-13T00:25:12;100417.53;;;22.61;47.47
25944;BME280;13742;49.306;8.636;2023-07-13T00:26:09;100418.82;;;22.59;47.58
25944;BME280;13742;49.306;8.636;2023-07-13T00:27:09;100417.64;;;22.59;47.49
25944;BME280;13742;49.306;8.636;2023-07-13T00:28:09;100413.30;;;22.57;47.49
25944;BME280;13742;49.306;8.636;2023-07-13T00:29:09;100416.03;;;22.56;47.61
25944;BME280;13742;49.306;8.636;2023-07-13T00:30:09;100414.45;;;22.56;47.78
25944;BME280;13742;49.306;8.636;2023-07-13T00:31:10;100411.89;;;22.56;47.84
25944;BME280;13742;49.306;8.636;2023-07-13T00:32:09;100411.19;;;22.55;47.97
25944;BME280;13742;49.306;8.636;2023-07-13T00:33:09;100405.88;;;22.53;47.71
25944;BME280;13742;49.306;8.636;2023-07-13T00:34:09;100407.36;;;22.53;47.84
25944;BME280;13742;49.306;8.636;2023-07-13T00:35:09;100406.72;;;22.51;47.84
25944;BME280;13742;49.306;8.636;2023-07-13T00:36:09;100408.80;;;22.51;47.66
25944;BME280;13742;49.306;8.636;2023-07-13T00:37:09;100409.11;;;22.50;47.82
25944;BME280;13742;49.306;8.636;2023-07-13T00:38:09;100407.91;;;22.49;47.78
25944;BME280;13742;49.306;8.636;2023-07-13T00:39:09;100411.06;;;22.48;48.31
25944;BME280;13742;49.306;8.636;2023-07-13T00:40:10;100412.52;;;22.48;47.96
25944;BME280;13742;49.306;8.636;2023-07-13T00:41:09;100411.06;;;22.48;48.10
25944;BME280;13742;49.306;8.636;2023-07-13T00:42:09;100413.26;;;22.48;48.02
25944;BME280;13742;49.306;8.636;2023-07-13T00:43:16;100411.06;;;22.48;48.42
25944;BME280;13742;49.306;8.636;2023-07-13T00:44:13;100409.15;;;22.49;48.52
25944;BME280;13742;49.306;8.636;2023-07-13T00:47:09;100413.77;;;22.47;48.17
25944;BME280;13742;49.306;8.636;2023-07-13T00:48:10;100417.33;;;22.47;48.37
25944;BME280;13742;49.306;8.636;2023-07-13T00:49:10;100412.25;;;22.45;48.37
25944;BME280;13742;49.306;8.636;2023-07-13T00:50:10;100413.78;;;22.40;49.17
25944;BME280;13742;49.306;8.636;2023-07-13T00:51:09;100417.14;;;22.40;49.23
25944;BME280;13742;49.306;8.636;2023-07-13T00:52:09;100412.10;;;22.37;49.20
25944;BME280;13742;49.306;8.636;2023-07-13T00:53:09;100413.02;;;22.37;48.77
25944;BME280;13742;49.306;8.636;2023-07-13T00:54:10;100415.91;;;22.35;48.94
25944;BME280;13742;49.306;8.636;2023-07-13T00:55:09;100417.05;;;22.33;48.99
25944;BME280;13742;49.306;8.636;2023-07-13T00:56:09;100419.64;;;22.32;48.93
25944;BME280;13742;49.306;8.636;2023-07-13T00:57:10;100415.64;;;22.31;49.52
25944;BME280;13742;49.306;8.636;2023-07-13T00:58:09;100418.71;;;22.26;49.76
25944;BME280;13742;49.306;8.636;2023-07-13T00:59:09;100419.66;;;22.24;49.73
25944;BME280;13742;49.306;8.636;2023-07-13T01:00:09;100416.53;;;22.17;50.10
25944;BME280;13742;49.306;8.636;2023-07-13T01:01:09;100414.72;;;22.15;50.33
25944;BME280;13742;49.306;8.636;2023-07-13T01:02:09;100417.65;;;22.11;50.42
25944;BME280;13742;49.306;8.636;2023-07-13T01:03:09;100416.91;;;22.09;50.39
25944;BME280;13742;49.306;8.636;2023-07-13T01:04:09;100416.88;;;22.01;50.73
25944;BME280;13742;49.306;8.636;2023-07-13T01:05:12;100420.31;;;21.98;50.84
25944;BME280;13742;49.306;8.636;2023-07-13T01:06:09;100421.42;;;21.93;50.85
25944;BME280;13742;49.306;8.636;2023-07-13T01:07:09;100419.09;;;21.92;51.00
25944;BME280;13742;49.306;8.636;2023-07-13T01:08:09;100417.02;;;21.90;51.04
25944;BME280;13742;49.306;8.636;2023-07-13T01:09:10;100418.89;;;21.88;51.06
25944;BME280;13742;49.306;8.636;2023-07-13T01:10:09;100419.63;;;21.85;51.18
25944;BME280;13742;49.306;8.636;2023-07-13T01:11:09;100419.33;;;21.78;51.50
25944;BME280;13742;49.306;8.636;2023-07-13T01:12:09;100419.69;;;21.74;51.48
25944;BME280;13742;49.306;8.636;2023-07-13T01:13:10;100419.72;;;21.73;51.27
25944;BME280;13742;49.306;8.636;2023-07-13T01:14:09;100423.82;;;21.70;51.28
25944;BME280;13742;49.306;8.636;2023-07-13T01:16:13;100421.83;;;21.65;51.85
25944;BME280;13742;49.306;8.636;2023-07-13T01:17:09;100423.14;;;21.65;51.71
25944;BME280;13742;49.306;8.636;2023-07-13T01:18:10;100421.56;;;21.65;51.84
25944;BME280;13742;49.306;8.636;2023-07-13T01:19:15;100422.10;;;21.65;52.16
25944;BME280;13742;49.306;8.636;2023-07-13T01:20:09;100424.25;;;21.65;51.92
25944;BME280;13742;49.306;8.636;2023-07-13T01:21:09;100422.00;;;21.62;51.96
25944;BME280;13742;49.306;8.636;2023-07-13T01:22:10;100427.67;;;21.61;51.69
25944;BME280;13742;49.306;8.636;2023-07-13T01:23:10;100428.34;;;21.58;51.89
25944;BME280;13742;49.306;8.636;2023-07-13T01:24:09;100428.91;;;21.54;52.06
25944;BME280;13742;49.306;8.636;2023-07-13T01:25:09;100426.75;;;21.53;51.81
25944;BME280;13742;49.306;8.636;2023-07-13T01:26:09;100425.73;;;21.50;52.16
25944;BME280;13742;49.306;8.636;2023-07-13T01:27:10;100427.51;;;21.46;52.23
25944;BME280;13742;49.306;8.636;2023-07-13T01:28:09;100427.98;;;21.45;52.39
25944;BME280;13742;49.306;8.636;2023-07-13T01:29:09;100423.41;;;21.44;52.02
25944;BME280;13742;49.306;8.636;2023-07-13T01:30:09;100423.77;;;21.43;51.97
25944;BME280;13742;49.306;8.636;2023-07-13T01:31:09;100426.23;;;21.43;52.48
25944;BME280;13742;49.306;8.636;2023-07-13T01:32:10;100426.19;;;21.42;52.31
25944;BME280;13742;49.306;8.636;2023-07-13T01:33:09;100429.05;;;21.42;52.65
25944;BME280;13742;49.306;8.636;2023-07-13T01:34:09;100428.94;;;21.39;52.85
25944;BME280;13742;49.306;8.636;2023-07-13T01:35:09;100427.09;;;21.37;53.09
25944;BME280;13742;49.306;8.636;2023-07-13T01:36:09;100429.06;;;21.36;53.54
25944;BME280;13742;49.306;8.636;2023-07-13T01:37:09;100424.64;;;21.27;54.03
25944;BME280;13742;49.306;8.636;2023-07-13T01:38:09;100425.70;;;21.23;54.34
25944;BME280;13742;49.306;8.636;2023-07-13T01:39:09;100428.63;;;21.16;54.40
25944;BME280;13742;49.306;8.636;2023-07-13T01:40:09;100420.44;;;21.17;54.07
25944;BME280;13742;49.306;8.636;2023-07-13T01:41:09;100429.06;;;21.14;54.51
25944;BME280;13742;49.306;8.636;2023-07-13T01:42:09;100427.06;;;21.10;54.60
25944;BME280;13742;49.306;8.636;2023-07-13T01:43:09;100431.70;;;21.10;54.40
25944;BME280;13742;49.306;8.636;2023-07-13T01:44:09;100431.80;;;21.09;54.68
25944;BME280;13742;49.306;8.636;2023-07-13T01:45:09;100432.69;;;21.06;54.71
25944;BME280;13742;49.306;8.636;2023-07-13T01:46:09;100433.66;;;21.04;54.29
25944;BME280;13742;49.306;8.636;2023-07-13T01:47:09;100434.22;;;21.03;54.34
25944;BME280;13742;49.306;8.636;2023-07-13T01:48:09;100435.20;;;21.03;54.05
25944;BME280;13742;49.306;8.636;2023-07-13T01:49:09;100434.02;;;21.03;54.40
25944;BME280;13742;49.306;8.636;2023-07-13T01:50:09;100433.79;;;21.03;54.37
25944;BME280;13742;49.306;8.636;2023-07-13T01:51:09;100430.55;;;21.00;54.49
25944;BME280;13742;49.306;8.636;2023-07-13T01:52:09;100433.70;;;20.98;54.25
25944;BME280;13742;49.306;8.636;2023-07-13T01:53:09;100441.05;;;20.98;55.32
25944;BME280;13742;49.306;8.636;2023-07-13T01:54:09;100440.64;;;20.98;55.17
25944;BME280;13742;49.306;8.636;2023-07-13T01:55:09;100445.27;;;20.93;54.72
25944;BME280;13742;49.306;8.636;2023-07-13T01:56:09;100448.20;;;20.91;55.49
25944;BME280;13742;49.306;8.636;2023-07-13T01:57:09;100448.47;;;20.90;55.19
25944;BME280;13742;49.306;8.636;2023-07-13T01:58:09;100447.83;;;20.90;55.14
25944;BME280;13742;49.306;8.636;2023-07-13T01:59:09;100451.76;;;20.90;55.21
25944;BME280;13742;49.306;8.636;2023-07-13T02:00:09;100449.88;;;20.89;54.81
25944;BME280;13742;49.306;8.636;2023-07-13T02:01:09;100449.54;;;20.89;55.94
25944;BME280;13742;49.306;8.636;2023-07-13T02:02:09;100447.98;;;20.88;56.12
25944;BME280;13742;49.306;8.636;2023-07-13T02:03:09;100445.35;;;20.84;56.25
25944;BME280;13742;49.306;8.636;2023-07-13T02:04:09;100441.86;;;20.84;55.87
25944;BME280;13742;49.306;8.636;2023-07-13T02:05:09;100440.81;;;20.83;55.77
25944;BME280;13742;49.306;8.636;2023-07-13T02:06:09;100443.17;;;20.79;56.50
25944;BME280;13742;49.306;8.636;2023-07-13T02:07:09;100443.28;;;20.79;56.12
25944;BME280;13742;49.306;8.636;2023-07-13T02:08:09;100442.47;;;20.78;55.81
25944;BME280;13742;49.306;8.636;2023-07-13T02:09:10;100447.91;;;20.78;55.59
25944;BME280;13742;49.306;8.636;2023-07-13T02:10:09;100447.71;;;20.80;56.20
25944;BME280;13742;49.306;8.636;2023-07-13T02:11:09;100444.52;;;20.79;56.22
25944;BME280;13742;49.306;8.636;2023-07-13T02:12:09;100448.74;;;20.78;56.46
25944;BME280;13742;49.306;8.636;2023-07-13T02:13:09;100443.66;;;20.77;56.48
25944;BME280;13742;49.306;8.636;2023-07-13T02:14:09;100442.45;;;20.75;56.36
25944;BME280;13742;49.306;8.636;2023-07-13T02:15:09;100439.75;;;20.73;55.88
25944;BME280;13742;49.306;8.636;2023-07-13T02:16:09;100439.25;;;20.73;56.59
25944;BME280;13742;49.306;8.636;2023-07-13T02:17:09;100438.80;;;20.70;56.92
25944;BME280;13742;49.306;8.636;2023-07-13T02:18:09;100435.55;;;20.66;57.07
25944;BME280;13742;49.306;8.636;2023-07-13T02:19:09;100439.48;;;20.66;56.94
25944;BME280;13742;49.306;8.636;2023-07-13T02:20:09;100437.39;;;20.64;56.68
25944;BME280;13742;49.306;8.636;2023-07-13T02:21:09;100437.78;;;20.63;57.14
25944;BME280;13742;49.306;8.636;2023-07-13T02:22:09;100437.64;;;20.62;57.30
25944;BME280;13742;49.306;8.636;2023-07-13T02:23:09;100443.78;;;20.62;57.40
25944;BME280;13742;49.306;8.636;2023-07-13T02:24:09;100440.20;;;20.62;57.15
25944;BME280;13742;49.306;8.636;2023-07-13T02:25:09;100443.84;;;20.61;56.62
25944;BME280;13742;49.306;8.636;2023-07-13T02:26:09;100445.27;;;20.59;57.01
25944;BME280;13742;49.306;8.636;2023-07-13T02:27:09;100448.33;;;20.58;56.41
25944;BME280;13742;49.306;8.636;2023-07-13T02:28:09;100446.04;;;20.58;56.29
25944;BME280;13742;49.306;8.636;2023-07-13T02:29:09;100449.63;;;20.57;56.33
25944;BME280;13742;49.306;8.636;2023-07-13T02:30:09;100446.88;;;20.58;56.57
25944;BME280;13742;49.306;8.636;2023-07-13T02:31:10;100445.43;;;20.57;56.49
25944;BME280;13742;49.306;8.636;2023-07-13T02:32:09;100444.66;;;20.57;56.75
25944;BME280;13742;49.306;8.636;2023-07-13T02:33:09;100445.79;;;20.56;56.77
25944;BME280;13742;49.306;8.636;2023-07-13T02:34:09;100449.72;;;20.55;57.12
25944;BME280;13742;49.306;8.636;2023-07-13T02:35:09;100448.48;;;20.52;57.04
25944;BME280;13742;49.306;8.636;2023-07-13T02:36:09;100448.17;;;20.50;56.61
25944;BME280;13742;49.306;8.636;2023-07-13T02:37:09;100452.36;;;20.49;57.68
25944;BME280;13742;49.306;8.636;2023-07-13T02:38:09;100451.22;;;20.44;57.39
25944;BME280;13742;49.306;8.636;2023-07-13T02:39:09;100453.47;;;20.27;58.28
25944;BME280;13742;49.306;8.636;2023-07-13T02:40:09;100449.74;;;20.30;57.50
25944;BME280;13742;49.306;8.636;2023-07-13T02:41:09;100450.39;;;20.32;57.33
25944;BME280;13742;49.306;8.636;2023-07-13T02:42:09;100448.22;;;20.32;57.64
25944;BME280;13742;49.306;8.636;2023-07-13T02:43:09;100448.38;;;20.32;58.01
25944;BME280;13742;49.306;8.636;2023-07-13T02:44:09;100447.97;;;20.25;58.03
25944;BME280;13742;49.306;8.636;2023-07-13T02:45:09;100451.09;;;20.10;58.12
25944;BME280;13742;49.306;8.636;2023-07-13T02:46:09;100453.31;;;20.19;57.59
25944;BME280;13742;49.306;8.636;2023-07-13T02:47:09;100456.52;;;20.21;57.46
25944;BME280;13742;49.306;8.636;2023-07-13T02:48:09;100454.95;;;20.22;57.66
25944;BME280;13742;49.306;8.636;2023-07-13T02:49:09;100454.05;;;20.22;57.40
25944;BME280;13742;49.306;8.636;2023-07-13T02:50:09;100456.95;;;20.22;57.36
25944;BME280;13742;49.306;8.636;2023-07-13T02:51:09;100456.91;;;20.21;57.61
25944;BME280;13742;49.306;8.636;2023-07-13T02:52:09;100457.19;;;20.13;58.22
25944;BME280;13742;49.306;8.636;2023-07-13T02:53:09;100460.56;;;20.08;58.30
25944;BME280;13742;49.306;8.636;2023-07-13T02:54:09;100458.80;;;19.95;58.59
25944;BME280;13742;49.306;8.636;2023-07-13T02:55:09;100456.82;;;19.87;58.88
25944;BME280;13742;49.306;8.636;2023-07-13T02:56:09;100456.09;;;19.88;58.64
25944;BME280;13742;49.306;8.636;2023-07-13T02:57:09;100453.58;;;19.87;58.50
25944;BME280;13742;49.306;8.636;2023-07-13T02:58:09;100451.59;;;19.90;58.44
25944;BME280;13742;49.306;8.636;2023-07-13T02:59:09;100450.55;;;19.79;58.64
25944;BME280;13742;49.306;8.636;2023-07-13T03:00:09;100452.46;;;19.79;58.75
25944;BME280;13742;49.306;8.636;2023-07-13T03:01:09;100452.89;;;19.75;58.90
25944;BME280;13742;49.306;8.636;2023-07-13T03:02:09;100453.63;;;19.75;58.65
25944;BME280;13742;49.306;8.636;2023-07-13T03:03:09;100454.31;;;19.73;58.70
25944;BME280;13742;49.306;8.636;2023-07-13T03:04:09;100454.31;;;19.77;58.46
25944;BME280;13742;49.306;8.636;2023-07-13T03:05:12;100454.59;;;19.78;58.14
25944;BME280;13742;49.306;8.636;2023-07-13T03:06:09;100452.34;;;19.78;58.12
25944;BME280;13742;49.306;8.636;2023-07-13T03:07:09;100453.35;;;19.78;58.43
25944;BME280;13742;49.306;8.636;2023-07-13T03:08:09;100452.92;;;19.78;58.07
25944;BME280;13742;49.306;8.636;2023-07-13T03:09:09;100453.48;;;19.77;57.80
25944;BME280;13742;49.306;8.636;2023-07-13T03:10:09;100452.55;;;19.77;57.52
25944;BME280;13742;49.306;8.636;2023-07-13T03:11:12;100454.09;;;19.78;58.13
25944;BME280;13742;49.306;8.636;2023-07-13T03:12:09;100457.48;;;19.79;58.10
25944;BME280;13742;49.306;8.636;2023-07-13T03:13:09;100456.71;;;19.78;57.94
25944;BME280;13742;49.306;8.636;2023-07-13T03:14:09;100461.93;;;19.77;58.27
25944;BME280;13742;49.306;8.636;2023-07-13T03:15:09;100458.02;;;19.75;58.15
25944;BME280;13742;49.306;8.636;2023-07-13T03:16:09;100460.84;;;19.73;58.17
25944;BME280;13742;49.306;8.636;2023-07-13T03:17:09;100459.92;;;19.71;58.17
25944;BME280;13742;49.306;8.636;2023-07-13T03:18:09;100462.90;;;19.71;58.12
25944;BME280;13742;49.306;8.636;2023-07-13T03:19:09;100464.50;;;19.70;58.00
25944;BME280;13742;49.306;8.636;2023-07-13T03:20:09;100465.44;;;19.67;58.46
25944;BME280;13742;49.306;8.636;2023-07-13T03:21:09;100461.31;;;19.66;58.04
25944;BME280;13742;49.306;8.636;2023-07-13T03:22:09;100465.73;;;19.66;58.02
25944;BME280;13742;49.306;8.636;2023-07-13T03:23:09;100463.59;;;19.63;58.18
25944;BME280;13742;49.306;8.636;2023-07-13T03:24:09;100462.06;;;19.61;58.21
25944;BME280;13742;49.306;8.636;2023-07-13T03:25:09;100461.52;;;19.60;58.21
25944;BME280;13742;49.306;8.636;2023-07-13T03:26:10;100460.14;;;19.57;58.78
25944;BME280;13742;49.306;8.636;2023-07-13T03:27:09;100463.57;;;19.55;59.00
25944;BME280;13742;49.306;8.636;2023-07-13T03:28:09;100464.45;;;19.52;59.13
25944;BME280;13742;49.306;8.636;2023-07-13T03:29:09;100463.55;;;19.46;59.29
25944;BME280;13742;49.306;8.636;2023-07-13T03:30:09;100464.73;;;19.45;59.55
25944;BME280;13742;49.306;8.636;2023-07-13T03:31:10;100463.59;;;19.26;60.00
25944;BME280;13742;49.306;8.636;2023-07-13T03:32:09;100461.50;;;19.28;60.13
25944;BME280;13742;49.306;8.636;2023-07-13T03:33:09;100467.25;;;19.30;60.04
25944;BME280;13742;49.306;8.636;2023-07-13T03:34:09;100462.89;;;19.30;59.67
25944;BME280;13742;49.306;8.636;2023-07-13T03:35:09;100465.66;;;19.32;59.05
25944;BME280;13742;49.306;8.636;2023-07-13T03:36:12;100467.36;;;19.34;58.77
25944;BME280;13742;49.306;8.636;2023-07-13T03:37:09;100469.27;;;19.32;58.99
25944;BME280;13742;49.306;8.636;2023-07-13T03:38:09;100466.63;;;19.29;58.23
25944;BME280;13742;49.306;8.636;2023-07-13T03:39:09;100474.92;;;19.20;58.74
25944;BME280;13742;49.306;8.636;2023-07-13T03:40:09;100476.03;;;19.14;59.06
25944;BME280;13742;49.306;8.636;2023-07-13T03:41:09;100476.63;;;19.01;59.31
25944;BME280;13742;49.306;8.636;2023-07-13T03:42:09;100473.86;;;18.97;59.38
25944;BME280;13742;49.306;8.636;2023-07-13T03:43:09;100473.66;;;19.00;59.31
25944;BME280;13742;49.306;8.636;2023-07-13T03:44:09;100475.09;;;19.04;59.27
25944;BME280;13742;49.306;8.636;2023-07-13T03:45:09;100476.13;;;19.07;58.97
25944;BME280;13742;49.306;8.636;2023-07-13T03:46:09;100479.92;;;19.07;58.91
25944;BME280;13742;49.306;8.636;2023-07-13T03:47:09;100480.80;;;19.01;58.69
25944;BME280;13742;49.306;8.636;2023-07-13T03:48:09;100476.95;;;18.95;58.70
25944;BME280;13742;49.306;8.636;2023-07-13T03:49:09;100476.97;;;18.87;59.11
25944;BME280;13742;49.306;8.636;2023-07-13T03:50:09;100474.33;;;18.95;58.67
25944;BME280;13742;49.306;8.636;2023-07-13T03:51:09;100474.67;;;18.95;58.46
25944;BME280;13742;49.306;8.636;2023-07-13T03:52:09;100472.83;;;18.95;58.62
25944;BME280;13742;49.306;8.636;2023-07-13T03:53:09;100475.20;;;18.97;58.37
25944;BME280;13742;49.306;8.636;2023-07-13T03:54:09;100475.93;;;18.97;58.34
25944;BME280;13742;49.306;8.636;2023-07-13T03:55:09;100474.44;;;18.95;58.66
25944;BME280;13742;49.306;8.636;2023-07-13T03:56:09;100473.20;;;18.97;58.34
25944;BME280;13742;49.306;8.636;2023-07-13T03:57:09;100475.19;;;18.99;58.35
25944;BME280;13742;49.306;8.636;2023-07-13T03:59:09;100477.79;;;18.95;58.35
25944;BME280;13742;49.306;8.636;2023-07-13T04:00:10;100477.38;;;18.97;58.21
25944;BME280;13742;49.306;8.636;2023-07-13T04:01:09;100477.33;;;18.96;58.30
25944;BME280;13742;49.306;8.636;2023-07-13T04:02:09;100474.44;;;18.95;58.51
25944;BME280;13742;49.306;8.636;2023-07-13T04:03:09;100475.83;;;18.94;58.57
25944;BME280;13742;49.306;8.636;2023-07-13T04:04:09;100475.73;;;18.94;58.64
25944;BME280;13742;49.306;8.636;2023-07-13T04:05:09;100476.96;;;18.94;58.51
25944;BME280;13742;49.306;8.636;2023-07-13T04:06:12;100479.22;;;18.97;58.31
25944;BME280;13742;49.306;8.636;2023-07-13T04:07:09;100474.79;;;18.99;58.32
25944;BME280;13742;49.306;8.636;2023-07-13T04:08:09;100480.08;;;19.01;58.51
25944;BME280;13742;49.306;8.636;2023-07-13T04:09:09;100479.51;;;19.04;58.21
25944;BME280;13742;49.306;8.636;2023-07-13T04:10:09;100479.53;;;19.06;58.14
25944;BME280;13742;49.306;8.636;2023-07-13T04:11:09;100477.88;;;19.04;58.13
25944;BME280;13742;49.306;8.636;2023-07-13T04:12:09;100479.77;;;19.06;57.78
25944;BME280;13742;49.306;8.636;2023-07-13T04:13:09;100481.08;;;19.07;58.30
25944;BME280;13742;49.306;8.636;2023-07-13T04:14:09;100477.77;;;19.04;58.45
25944;BME280;13742;49.306;8.636;2023-07-13T04:15:09;100481.67;;;19.05;58.26
25944;BME280;13742;49.306;8.636;2023-07-13T04:16:09;100485.94;;;19.07;57.94
25944;BME280;13742;49.306;8.636;2023-07-13T04:17:09;100487.00;;;19.06;58.34
25944;BME280;13742;49.306;8.636;2023-07-13T04:18:09;100489.80;;;19.07;58.34
25944;BME280;13742;49.306;8.636;2023-07-13T04:19:10;100486.53;;;19.09;58.37
25944;BME280;13742;49.306;8.636;2023-07-13T04:20:09;100484.86;;;19.09;58.30
25944;BME280;13742;49.306;8.636;2023-07-13T04:21:09;100483.91;;;19.10;58.36
25944;BME280;13742;49.306;8.636;2023-07-13T04:22:09;100486.91;;;19.11;58.25
25944;BME280;13742;49.306;8.636;2023-07-13T04:23:09;100490.80;;;19.13;58.31
25944;BME280;13742;49.306;8.636;2023-07-13T04:24:09;100494.55;;;19.12;58.57
25944;BME280;13742;49.306;8.636;2023-07-13T04:25:09;100498.91;;;19.13;58.50
25944;BME280;13742;49.306;8.636;2023-07-13T04:26:09;100494.45;;;19.13;58.17
25944;BME280;13742;49.306;8.636;2023-07-13T04:27:09;100499.25;;;19.14;57.98
25944;BME280;13742;49.306;8.636;2023-07-13T04:28:09;100496.81;;;19.14;58.06
25944;BME280;13742;49.306;8.636;2023-07-13T04:29:09;100498.52;;;19.14;57.76
25944;BME280;13742;49.306;8.636;2023-07-13T04:30:09;100500.20;;;19.15;57.63
25944;BME280;13742;49.306;8.636;2023-07-13T04:31:09;100496.61;;;19.16;57.63
25944;BME280;13742;49.306;8.636;2023-07-13T04:32:09;100500.32;;;19.18;57.69
25944;BME280;13742;49.306;8.636;2023-07-13T04:33:09;100502.05;;;19.20;57.68
25944;BME280;13742;49.306;8.636;2023-07-13T04:34:09;100501.08;;;19.22;58.44
25944;BME280;13742;49.306;8.636;2023-07-13T04:35:09;100503.52;;;19.24;58.97
25944;BME280;13742;49.306;8.636;2023-07-13T04:36:09;100503.33;;;19.26;58.88
25944;BME280;13742;49.306;8.636;2023-07-13T04:37:09;100505.00;;;19.26;58.50
25944;BME280;13742;49.306;8.636;2023-07-13T04:38:11;100502.15;;;19.28;58.30
25944;BME280;13742;49.306;8.636;2023-07-13T04:39:09;100505.59;;;19.28;58.16
25944;BME280;13742;49.306;8.636;2023-07-13T04:40:12;100506.61;;;19.28;58.37
25944;BME280;13742;49.306;8.636;2023-07-13T04:41:09;100507.73;;;19.27;58.12
25944;BME280;13742;49.306;8.636;2023-07-13T04:42:09;100508.06;;;19.27;58.12
25944;BME280;13742;49.306;8.636;2023-07-13T04:43:09;100510.58;;;19.27;58.26
25944;BME280;13742;49.306;8.636;2023-07-13T04:44:09;100514.97;;;19.28;58.35
25944;BME280;13742;49.306;8.636;2023-07-13T04:45:09;100513.86;;;19.27;58.13
25944;BME280;13742;49.306;8.636;2023-07-13T04:46:14;100513.36;;;19.27;58.43
25944;BME280;13742;49.306;8.636;2023-07-13T04:47:09;100517.38;;;19.28;58.16
25944;BME280;13742;49.306;8.636;2023-07-13T04:48:09;100515.19;;;19.29;58.37
25944;BME280;13742;49.306;8.636;2023-07-13T04:49:09;100516.31;;;19.30;58.05
25944;BME280;13742;49.306;8.636;2023-07-13T04:50:12;100514.84;;;19.31;57.80
25944;BME280;13742;49.306;8.636;2023-07-13T04:51:09;100514.38;;;19.31;57.67
25944;BME280;13742;49.306;8.636;2023-07-13T04:52:09;100516.59;;;19.34;57.64
25944;BME280;13742;49.306;8.636;2023-07-13T04:53:09;100515.30;;;19.35;57.35
25944;BME280;13742;49.306;8.636;2023-07-13T04:54:09;100516.69;;;19.37;57.30
25944;BME280;13742;49.306;8.636;2023-07-13T04:55:09;100518.56;;;19.39;57.49
25944;BME280;13742;49.306;8.636;2023-07-13T04:56:09;100515.30;;;19.40;57.29
25944;BME280;13742;49.306;8.636;2023-07-13T04:57:09;100518.14;;;19.43;57.06
25944;BME280;13742;49.306;8.636;2023-07-13T04:58:09;100515.71;;;19.44;57.09
25944;BME280;13742;49.306;8.636;2023-07-13T04:59:09;100512.88;;;19.45;57.76
25944;BME280;13742;49.306;8.636;2023-07-13T05:00:10;100516.89;;;19.45;58.04
25944;BME280;13742;49.306;8.636;2023-07-13T05:01:09;100517.29;;;19.44;57.96
25944;BME280;13742;49.306;8.636;2023-07-13T05:02:09;100515.98;;;19.45;57.92
25944;BME280;13742;49.306;8.636;2023-07-13T05:03:09;100513.73;;;19.42;58.22
25944;BME280;13742;49.306;8.636;2023-07-13T05:04:09;100514.03;;;19.41;58.23
25944;BME280;13742;49.306;8.636;2023-07-13T05:05:09;100516.38;;;19.41;58.23
25944;BME280;13742;49.306;8.636;2023-07-13T05:06:11;100514.09;;;19.40;58.42
25944;BME280;13742;49.306;8.636;2023-07-13T05:07:09;100516.51;;;19.44;58.38
25944;BME280;13742;49.306;8.636;2023-07-13T05:08:09;100514.55;;;19.48;58.25
25944;BME280;13742;49.306;8.636;2023-07-13T05:09:09;100511.39;;;19.53;58.58
25944;BME280;13742;49.306;8.636;2023-07-13T05:10:09;100517.62;;;19.55;58.26
25944;BME280;13742;49.306;8.636;2023-07-13T05:11:09;100517.52;;;19.59;58.15
25944;BME280;13742;49.306;8.636;2023-07-13T05:12:09;100516.61;;;19.61;58.09
25944;BME280;13742;49.306;8.636;2023-07-13T05:13:09;100518.25;;;19.64;58.12
25944;BME280;13742;49.306;8.636;2023-07-13T05:14:09;100518.28;;;19.67;58.05
25944;BME280;13742;49.306;8.636;2023-07-13T05:15:09;100520.80;;;19.70;58.30
25944;BME280;13742;49.306;8.636;2023-07-13T05:16:09;100522.85;;;19.73;59.05
25944;BME280;13742;49.306;8.636;2023-07-13T05:17:09;100522.86;;;19.77;59.31